Time;durP1;ratioP1;P1;durP2;ratioP2;P2;SDS_P1;SDS_P2;PMS_P1;PMS_P2;Temp;Humidity;BMP_temperature;BMP_pressure;BME280_temperature;BME280_humidity;BME280_pressure;Samples;Min_cycle;Max_cycle;Signal;HPM_P1;HPM_P2
2021/05/17 00:00:13;;;;;;;11.73;7.90;;;;;;;18.22;48.77;99535.56;5091760;28;20028;-51
2021/05/17 00:02:41;;;;;;;10.07;7.28;;;;;;;18.46;48.96;99577.03;5091283;28;20082;-51
2021/05/17 00:05:06;;;;;;;11.30;7.72;;;;;;;18.39;49.01;99573.38;5091304;28;20036;-50
2021/05/17 00:07:32;;;;;;;11.23;7.78;;;;;;;18.36;48.98;99560.19;5091134;28;20093;-55
2021/05/17 00:09:58;;;;;;;14.10;8.38;;;;;;;18.41;49.15;99579.47;5091758;28;20044;-49
2021/05/17 00:12:24;;;;;;;11.65;7.63;;;;;;;18.38;49.21;99582.53;5091175;28;20146;-52
2021/05/17 00:14:49;;;;;;;15.30;8.20;;;;;;;18.34;49.24;99578.50;5091185;28;20395;-50
2021/05/17 00:17:15;;;;;;;13.60;8.57;;;;;;;17.93;49.59;99515.44;5091434;28;20031;-50
2021/05/17 00:19:41;;;;;;;11.00;8.38;;;;;;;18.17;49.46;99569.63;5091408;28;20060;-48
2021/05/17 00:22:07;;;;;;;10.23;9.13;;;;;;;18.10;49.66;99569.53;5091389;28;20032;-47
2021/05/17 00:24:32;;;;;;;13.68;8.45;;;;;;;18.03;49.88;99563.13;5091097;28;20039;-48
2021/05/17 00:27:05;;;;;;;13.75;8.65;;;;;;;18.16;49.86;99581.50;5091167;28;20042;-46
2021/05/17 00:29:31;;;;;;;12.60;8.65;;;;;;;18.20;50.03;99588.22;5091661;28;20115;-49
2021/05/17 00:32:02;;;;;;;10.63;8.00;;;;;;;18.09;50.06;99573.25;5091198;28;20108;-49
2021/05/17 00:34:28;;;;;;;11.25;8.68;;;;;;;18.07;50.00;99588.81;5090761;28;20035;-49
2021/05/17 00:36:54;;;;;;;11.57;8.70;;;;;;;17.96;50.39;99564.84;5090855;28;20218;-50
2021/05/17 00:39:20;;;;;;;13.90;8.65;;;;;;;17.90;50.21;99567.25;5091085;28;20135;-47
2021/05/17 00:41:46;;;;;;;14.57;9.18;;;;;;;18.04;50.49;99594.59;5101737;28;20431;-46
2021/05/17 00:44:12;;;;;;;11.52;8.93;;;;;;;18.00;50.42;99587.84;5111066;28;20066;-47
2021/05/17 00:46:39;;;;;;;16.73;9.00;;;;;;;17.64;50.59;99537.75;5110592;28;20042;-50
2021/05/17 00:49:05;;;;;;;12.07;8.93;;;;;;;17.93;50.73;99602.09;5110942;28;20481;-50
2021/05/17 00:51:32;;;;;;;16.70;8.77;;;;;;;17.93;50.81;99587.69;5111195;28;20081;-53
2021/05/17 00:53:59;;;;;;;16.45;8.20;;;;;;;17.80;51.03;99577.44;5110814;28;20032;-46
2021/05/17 00:56:25;;;;;;;16.67;9.18;;;;;;;17.72;51.04;99569.38;5110820;28;20051;-51
2021/05/17 00:58:51;;;;;;;14.65;8.60;;;;;;;17.80;51.09;99585.56;5110518;28;20031;-51
2021/05/17 01:01:17;;;;;;;14.02;8.95;;;;;;;17.50;50.96;99540.22;5110741;28;20036;-47
2021/05/17 01:03:43;;;;;;;11.70;9.02;;;;;;;17.79;51.11;99594.72;5110710;28;20034;-46
2021/05/17 01:06:09;;;;;;;11.10;8.55;;;;;;;17.69;51.05;99591.38;5110552;28;20039;-49
2021/05/17 01:08:43;;;;;;;15.13;8.98;;;;;;;17.76;51.61;99595.94;5110620;28;20043;-49
2021/05/17 01:11:11;;;;;;;13.35;9.77;;;;;;;17.69;51.76;99607.63;5110696;28;20180;-46
2021/05/17 01:13:40;;;;;;;17.15;9.68;;;;;;;17.63;51.80;99601.03;5110471;28;20070;-52
2021/05/17 01:16:06;;;;;;;13.15;9.60;;;;;;;17.65;51.61;99594.44;5110591;28;20103;-46
2021/05/17 01:18:33;;;;;;;17.05;10.13;;;;;;;17.56;51.83;99587.34;5110223;28;20545;-47
2021/05/17 01:20:58;;;;;;;15.25;10.05;;;;;;;17.67;51.68;99593.44;5110358;28;20385;-51
2021/05/17 01:25:55;;;;;;;17.98;10.30;;;;;;;17.61;51.69;99582.28;5109830;28;20184;-52
2021/05/17 01:28:23;;;;;;;13.25;9.25;;;;;;;17.75;51.61;99596.09;5109120;28;20031;-52
2021/05/17 01:30:51;;;;;;;15.73;9.75;;;;;;;17.73;51.51;99593.56;5110145;28;20031;-51
2021/05/17 01:33:17;;;;;;;12.43;9.32;;;;;;;17.69;51.47;99592.22;5109742;28;20085;-52
2021/05/17 01:35:48;;;;;;;20.88;10.18;;;;;;;17.68;51.69;99595.13;5110479;28;20070;-49
2021/05/17 01:38:18;;;;;;;15.73;10.98;;;;;;;17.59;51.77;99595.13;5110339;28;20485;-46
2021/05/17 01:40:46;;;;;;;14.07;9.02;;;;;;;17.61;51.88;99601.25;5110047;28;20164;-48
2021/05/17 01:43:14;;;;;;;13.75;8.80;;;;;;;17.58;51.35;99593.44;5109407;28;20043;-46
2021/05/17 01:45:40;;;;;;;19.58;9.40;;;;;;;17.67;51.39;99596.13;5110329;28;20032;-48
2021/05/17 01:48:06;;;;;;;11.27;8.85;;;;;;;17.65;51.42;99604.41;5110372;28;20043;-51
2021/05/17 01:50:33;;;;;;;18.23;9.63;;;;;;;17.70;51.35;99604.72;5109761;28;20118;-50
2021/05/17 01:52:59;;;;;;;14.82;10.70;;;;;;;17.72;51.56;99612.69;5109906;28;20036;-51
2021/05/17 01:55:25;;;;;;;18.35;9.00;;;;;;;17.64;51.40;99606.28;5110374;28;20168;-50
2021/05/17 01:58:09;;;;;;;15.32;10.73;;;;;;;17.73;51.63;99617.94;5109664;28;20040;-47
2021/05/17 02:00:35;;;;;;;14.30;9.77;;;;;;;17.57;51.38;99594.47;5091603;28;20035;-50
2021/05/17 02:03:00;;;;;;;16.52;11.32;;;;;;;17.40;51.50;99573.91;5109797;28;20079;-52
2021/05/17 02:05:26;;;;;;;14.02;9.02;;;;;;;17.70;51.37;99620.16;5110230;28;20031;-47
2021/05/17 02:07:53;;;;;;;16.77;9.48;;;;;;;17.47;51.04;99586.53;5110223;28;20130;-48
2021/05/17 02:10:19;;;;;;;15.68;8.80;;;;;;;17.84;50.93;99611.25;5109108;28;20028;-52
2021/05/17 02:12:45;;;;;;;14.43;8.95;;;;;;;17.85;50.64;99604.84;5109700;28;20483;-50
2021/05/17 02:15:11;;;;;;;12.77;8.77;;;;;;;17.91;50.46;99608.69;5110156;28;20024;-47
2021/05/17 02:17:37;;;;;;;12.02;8.75;;;;;;;18.09;50.13;99627.44;5108953;28;20046;-51
2021/05/17 02:20:03;;;;;;;13.73;8.60;;;;;;;18.12;49.92;99601.84;5109223;28;20032;-46
2021/05/17 02:22:29;;;;;;;14.15;9.02;;;;;;;18.30;49.67;99613.25;5112772;28;20093;-48
2021/05/17 02:24:55;;;;;;;16.13;8.25;;;;;;;18.39;49.32;99619.47;5113749;28;20040;-49
2021/05/17 02:27:21;;;;;;;13.40;9.55;;;;;;;18.55;49.22;99609.50;5113530;28;20467;-51
2021/05/17 02:29:46;;;;;;;12.20;7.80;;;;;;;18.51;48.82;99606.31;5113255;28;20152;-50
2021/05/17 02:32:24;;;;;;;12.13;7.85;;;;;;;18.55;48.41;99580.53;5113165;28;20043;-51
2021/05/17 02:34:50;;;;;;;10.93;7.93;;;;;;;18.73;48.45;99625.47;5113742;28;20084;-46
2021/05/17 02:37:15;;;;;;;13.25;8.20;;;;;;;18.76;48.36;99623.22;5112896;28;20039;-45
2021/05/17 02:39:41;;;;;;;9.00;7.28;;;;;;;18.77;48.15;99616.78;5112673;28;20070;-51
2021/05/17 02:42:12;;;;;;;12.25;8.27;;;;;;;18.85;48.10;99621.28;5113236;28;20130;-50
2021/05/17 02:44:40;;;;;;;12.68;8.77;;;;;;;18.88;48.02;99620.91;5113585;28;20035;-51
2021/05/17 02:47:06;;;;;;;9.35;7.28;;;;;;;18.86;47.58;99598.56;5112869;28;20055;-51
2021/05/17 02:49:34;;;;;;;11.98;8.13;;;;;;;18.95;47.65;99615.59;5112580;28;20758;-50
2021/05/17 02:52:00;;;;;;;11.07;8.13;;;;;;;18.94;47.53;99608.50;5112582;28;20438;-51
2021/05/17 02:54:33;;;;;;;11.48;7.53;;;;;;;19.00;47.43;99609.69;5113010;28;20033;-48
2021/05/17 02:56:58;;;;;;;9.40;7.50;;;;;;;19.01;47.47;99612.19;5112954;28;20055;-48
2021/05/17 02:59:35;;;;;;;17.45;8.02;;;;;;;19.14;47.20;99613.44;5112278;28;20086;-47
2021/05/17 03:02:06;;;;;;;12.00;7.28;;;;;;;19.12;46.69;99591.06;5112616;28;20377;-52
2021/05/17 03:04:35;;;;;;;12.82;6.95;;;;;;;19.14;46.69;99603.41;5112798;28;20879;-50
2021/05/17 03:07:09;;;;;;;13.18;8.15;;;;;;;19.34;46.57;99609.16;5112854;28;20118;-50
2021/05/17 03:09:36;;;;;;;9.13;7.03;;;;;;;19.41;46.43;99608.41;5112304;27;20031;-51
2021/05/17 03:12:03;;;;;;;12.40;6.80;;;;;;;19.54;45.91;99596.88;5112451;28;20246;-51
2021/05/17 03:14:30;;;;;;;11.85;6.68;;;;;;;19.60;45.76;99604.25;5112189;28;20054;-49
2021/05/17 03:17:01;;;;;;;13.65;6.93;;;;;;;19.75;45.45;99599.66;5112596;28;20126;-49
2021/05/17 03:19:27;;;;;;;9.80;7.38;;;;;;;19.79;44.95;99581.94;5112219;28;20668;-49
2021/05/17 03:21:55;;;;;;;12.98;7.47;;;;;;;20.20;44.20;99594.13;5112238;28;20040;-53
2021/05/17 03:24:22;;;;;;;8.95;7.03;;;;;;;20.84;42.95;99599.78;5112054;28;20469;-53
2021/05/17 03:26:49;;;;;;;11.38;6.65;;;;;;;21.68;41.39;99593.63;5112511;28;20122;-53
2021/05/17 03:29:15;;;;;;;11.00;6.43;;;;;;;22.51;39.63;99598.94;5111855;28;20028;-51
2021/05/17 03:31:40;;;;;;;9.07;6.32;;;;;;;23.21;38.13;99573.06;5112565;28;20450;-50
2021/05/17 03:34:06;;;;;;;10.07;6.70;;;;;;;24.19;36.35;99597.78;5112476;28;20031;-47
2021/05/17 03:36:31;;;;;;;16.85;6.75;;;;;;;25.07;34.70;99584.28;5111998;28;20197;-48
2021/05/17 03:38:57;;;;;;;11.60;6.88;;;;;;;25.94;33.34;99596.19;5111701;28;20027;-53
2021/05/17 03:41:22;;;;;;;9.63;5.97;;;;;;;26.61;32.01;99582.59;5112451;28;20043;-47
2021/05/17 03:43:48;;;;;;;14.23;6.65;;;;;;;27.35;30.48;99587.66;5111945;28;20040;-49
2021/05/17 03:46:13;;;;;;;13.95;6.20;;;;;;;27.87;29.20;99582.44;5112151;28;20039;-53
2021/05/17 03:48:42;;;;;;;8.70;5.63;;;;;;;28.22;28.52;99585.09;5111627;28;20068;-51
2021/05/17 03:51:08;;;;;;;9.13;6.40;;;;;;;28.94;27.34;99607.53;5112249;28;20058;-51
2021/05/17 03:53:34;;;;;;;7.72;5.75;;;;;;;29.18;26.14;99606.50;5112035;27;20039;-53
2021/05/17 03:56:00;;;;;;;9.55;6.30;;;;;;;29.34;26.19;99605.63;5111375;28;20035;-53
2021/05/17 03:58:25;;;;;;;7.88;5.47;;;;;;;29.54;25.50;99598.75;5111562;28;20533;-53
2021/05/17 04:00:59;;;;;;;7.72;5.22;;;;;;;29.69;25.15;99605.56;5112648;28;20085;-52
2021/05/17 04:03:26;;;;;;;6.82;5.03;;;;;;;29.54;24.70;99597.91;5111402;28;20492;-53
2021/05/17 04:13:55;;;;;;;9.23;4.78;;;;;;;30.85;22.96;99601.81;5111230;27;20409;-53
2021/05/17 04:16:21;;;;;;;8.50;4.53;;;;;;;31.14;22.56;99601.47;5110993;28;20129;-48
2021/05/17 04:18:47;;;;;;;9.98;4.47;;;;;;;31.05;22.03;99588.13;5111517;28;20032;-54
2021/05/17 04:21:13;;;;;;;7.60;4.30;;;;;;;31.14;22.15;99598.72;5111730;28;20369;-52
2021/05/17 04:23:38;;;;;;;9.18;4.65;;;;;;;31.31;21.94;99557.91;5110790;28;20034;-53
2021/05/17 04:26:05;;;;;;;8.27;4.30;;;;;;;32.28;21.28;99591.75;5110864;28;20445;-49
2021/05/17 04:28:31;;;;;;;9.30;4.22;;;;;;;32.84;20.21;99575.47;5111482;28;20028;-50
2021/05/17 04:30:56;;;;;;;5.80;4.15;;;;;;;33.76;19.48;99584.66;5111251;28;20383;-52
2021/05/17 04:33:22;;;;;;;6.85;4.60;;;;;;;34.08;18.66;99563.97;5110472;28;20039;-51
2021/05/17 04:35:48;;;;;;;5.53;4.40;;;;;;;34.56;17.95;99585.59;5110607;28;20114;-58
2021/05/17 04:38:14;;;;;;;5.28;4.07;;;;;;;34.77;17.86;99577.94;5111029;28;20023;-53
2021/05/17 04:40:40;;;;;;;6.70;4.40;;;;;;;35.33;17.50;99586.84;5110832;28;20051;-51
2021/05/17 04:43:06;;;;;;;5.78;4.20;;;;;;;36.02;16.70;99582.13;5110776;28;20039;-53
2021/05/17 04:45:31;;;;;;;5.57;4.10;;;;;;;36.11;16.47;99585.88;5110309;28;20605;-51
2021/05/17 04:47:57;;;;;;;5.47;4.18;;;;;;;36.69;16.31;99583.06;5110340;28;20040;-50
2021/05/17 04:50:23;;;;;;;6.88;4.20;;;;;;;37.23;15.61;99577.91;5110643;28;20036;-51
2021/05/17 04:52:49;;;;;;;6.55;4.10;;;;;;;38.01;14.74;99581.91;5110586;28;20061;-56
2021/05/17 04:55:15;;;;;;;5.93;3.90;;;;;;;39.03;14.23;99568.53;5109976;28;20051;-50
2021/05/17 04:57:40;;;;;;;8.57;3.63;;;;;;;39.96;13.70;99556.63;5110658;28;20074;-49
2021/05/17 05:00:08;;;;;;;5.50;3.65;;;;;;;40.78;12.37;99581.19;5109599;28;20039;-50
2021/05/17 05:02:33;;;;;;;5.03;3.17;;;;;;;41.00;12.02;99579.31;5110018;28;20051;-50
2021/05/17 05:04:59;;;;;;;3.35;2.80;;;;;;;41.31;11.90;99579.03;5110286;28;20088;-53
2021/05/17 05:07:25;;;;;;;5.35;3.40;;;;;;;42.02;11.21;99581.47;5110643;28;20443;-51
2021/05/17 05:09:50;;;;;;;3.40;3.10;;;;;;;42.43;10.82;99543.19;5109967;28;20074;-53
2021/05/17 05:12:16;;;;;;;5.20;3.33;;;;;;;43.10;10.37;99597.81;5110829;28;20031;-53
2021/05/17 05:14:41;;;;;;;3.20;2.88;;;;;;;43.11;10.32;99574.13;5110013;28;20028;-52
2021/05/17 05:17:07;;;;;;;5.20;2.90;;;;;;;43.06;9.78;99577.16;5111065;28;20038;-50
2021/05/17 05:19:32;;;;;;;5.40;2.88;;;;;;;43.27;10.00;99586.34;5110813;28;20027;-55
2021/05/17 05:21:58;;;;;;;7.85;3.30;;;;;;;43.17;10.09;99578.38;5110548;28;20032;-50
2021/05/17 05:24:24;;;;;;;4.32;2.63;;;;;;;43.18;9.95;99582.81;5110559;27;20370;-51
2021/05/17 05:27:14;;;;;;;4.28;3.20;;;;;;;43.02;9.74;99586.31;5110994;28;20032;-53
2021/05/17 05:32:07;;;;;;;7.00;3.13;;;;;;;43.93;9.09;99548.97;5110299;28;20027;-48
2021/05/17 05:34:33;;;;;;;4.85;2.60;;;;;;;44.49;8.73;99584.03;5094954;28;20389;-54
2021/05/17 05:36:59;;;;;;;5.60;2.70;;;;;;;44.45;8.44;99576.28;5087321;28;20040;-52
2021/05/17 05:39:25;;;;;;;5.00;2.83;;;;;;;44.10;8.90;99582.50;5088060;28;20044;-53
2021/05/17 05:41:51;;;;;;;5.55;3.10;;;;;;;44.59;8.85;99598.47;5090183;28;20036;-58
2021/05/17 05:44:17;;;;;;;8.38;2.67;;;;;;;44.97;8.52;99562.38;5090306;28;20116;-51
2021/05/17 05:46:42;;;;;;;4.07;2.90;;;;;;;45.84;8.18;99578.63;5089403;28;20481;-52
2021/05/17 05:49:08;;;;;;;7.03;3.30;;;;;;;46.66;7.47;99583.53;5089810;28;20034;-54
2021/05/17 05:51:34;;;;;;;8.85;3.15;;;;;;;47.47;7.28;99572.38;5090067;28;20032;-56
2021/05/17 05:54:00;;;;;;;4.90;2.78;;;;;;;47.54;7.24;99572.50;5090084;28;20098;-56
2021/05/17 05:56:27;;;;;;;3.10;2.85;;;;;;;47.02;7.23;99574.91;5091796;28;20101;-52
2021/05/17 05:58:53;;;;;;;5.80;3.00;;;;;;;46.99;7.20;99567.97;5093626;28;20044;-57
2021/05/17 06:01:19;;;;;;;3.90;2.95;;;;;;;47.15;7.02;99573.50;5092834;28;20039;-50
2021/05/17 06:03:45;;;;;;;5.68;3.20;;;;;;;47.08;7.19;99566.91;5092837;28;20070;-54
2021/05/17 06:06:11;;;;;;;5.53;2.90;;;;;;;46.81;6.97;99569.66;5093738;28;20035;-50
2021/05/17 06:08:43;;;;;;;2.80;2.60;;;;;;;46.34;7.18;99580.91;5093758;28;20048;-52
2021/05/17 06:11:10;;;;;;;3.50;2.80;;;;;;;46.81;7.29;99590.28;5093383;28;20501;-51
2021/05/17 06:13:38;;;;;;;5.25;2.47;;;;;;;46.68;7.26;99577.53;5093394;28;20057;-52
2021/05/17 06:16:05;;;;;;;4.72;2.92;;;;;;;46.29;7.38;99579.16;5093265;28;20119;-50
2021/05/17 06:18:31;;;;;;;3.10;2.80;;;;;;;46.46;7.28;99548.78;5093358;28;20088;-50
2021/05/17 06:20:57;;;;;;;4.00;2.60;;;;;;;47.44;6.75;99570.31;5093292;28;20040;-54
2021/05/17 06:23:23;;;;;;;4.80;2.30;;;;;;;47.94;6.71;99560.91;5093844;28;20065;-53
2021/05/17 06:25:50;;;;;;;9.60;3.05;;;;;;;47.34;6.48;99563.28;5092376;28;20035;-52
2021/05/17 06:28:20;;;;;;;5.78;2.80;;;;;;;47.48;7.14;99568.34;5093146;28;20085;-54
2021/05/17 06:30:51;;;;;;;3.92;3.00;;;;;;;48.18;6.05;99564.47;5101952;28;20035;-54
2021/05/17 06:33:18;;;;;;;3.70;2.70;;;;;;;48.24;6.69;99562.94;5102760;28;20034;-52
2021/05/17 06:35:46;;;;;;;6.63;2.75;;;;;;;49.36;5.98;99551.81;5101646;28;20096;-51
2021/05/17 06:38:15;;;;;;;3.40;3.10;;;;;;;49.34;5.86;99563.59;5101254;28;20031;-55
2021/05/17 06:40:41;;;;;;;3.97;2.75;;;;;;;48.35;6.06;99558.16;5091767;28;20081;-51
2021/05/17 06:43:07;;;;;;;6.43;3.30;;;;;;;47.46;6.62;99542.41;5098614;28;20514;-50
2021/05/17 06:45:33;;;;;;;5.45;3.03;;;;;;;47.04;6.62;99498.03;5101959;28;20043;-52
2021/05/17 06:47:59;;;;;;;4.18;2.85;;;;;;;47.89;6.49;99528.03;5102810;28;20094;-53
2021/05/17 06:50:26;;;;;;;4.43;2.55;;;;;;;48.63;6.07;99525.63;5100955;28;20077;-53
2021/05/17 06:52:52;;;;;;;6.00;2.63;;;;;;;48.97;6.02;99525.53;5102094;28;20031;-59
2021/05/17 06:55:22;;;;;;;3.35;3.05;;;;;;;49.07;6.05;99534.53;5097926;28;20032;-51
2021/05/17 07:00:23;;;;;;;5.65;2.90;;;;;;;48.36;5.68;99514.38;5097720;28;20032;-53
2021/05/17 07:02:51;;;;;;;5.13;2.90;;;;;;;47.88;6.23;99528.41;5096969;28;20138;-51
2021/05/17 07:05:20;;;;;;;5.53;3.03;;;;;;;48.03;6.60;99510.38;5112721;28;20489;-50
2021/05/17 07:13:17;;;;;;;21.75;4.63;;;;;;;47.87;6.13;99482.19;5112698;28;20040;-54
2021/05/17 07:15:44;;;;;;;5.80;3.15;;;;;;;47.68;6.04;99488.84;5111966;28;20404;-49
2021/05/17 07:18:10;;;;;;;3.83;3.38;;;;;;;48.25;6.02;99513.47;5112831;28;20036;-49
2021/05/17 07:26:02;;;;;;;7.28;3.22;;;;;;;49.45;5.42;99495.44;5112476;28;20031;-56
2021/05/17 07:28:28;;;;;;;5.97;2.92;;;;;;;49.63;5.59;99492.69;5112839;28;20096;-54
2021/05/17 07:30:54;;;;;;;5.88;2.85;;;;;;;49.15;5.50;99492.81;5113019;28;20035;-60
2021/05/17 07:33:20;;;;;;;12.38;4.00;;;;;;;49.40;5.78;99501.47;5112860;28;20500;-55
2021/05/17 07:35:45;;;;;;;6.55;3.10;;;;;;;49.20;5.32;99496.09;5112808;28;20139;-53
2021/05/17 07:38:11;;;;;;;4.70;2.88;;;;;;;49.05;6.29;99483.75;5108893;28;20035;-56
2021/05/17 07:40:37;;;;;;;7.47;2.95;;;;;;;49.44;5.59;99492.97;5093999;28;20064;-52
2021/05/17 07:43:03;;;;;;;3.22;2.60;;;;;;;49.51;5.37;99478.81;5090975;28;20048;-53
2021/05/17 07:45:29;;;;;;;4.97;2.47;;;;;;;49.77;5.26;99474.88;5094084;28;20046;-50
2021/05/17 07:47:56;;;;;;;5.20;3.03;;;;;;;50.37;5.08;99444.13;5095323;28;20036;-55
2021/05/17 07:50:22;;;;;;;4.18;2.78;;;;;;;50.91;4.79;99471.81;5108347;28;20413;-55
2021/05/17 07:52:47;;;;;;;5.25;2.60;;;;;;;50.05;4.86;99464.81;5098308;28;20027;-54
2021/05/17 07:55:15;;;;;;;4.28;2.67;;;;;;;49.61;5.35;99474.38;5100943;28;20040;-61
2021/05/17 07:57:41;;;;;;;6.15;3.05;;;;;;;49.42;5.70;99445.00;5102070;28;20031;-56
2021/05/17 08:00:08;;;;;;;4.60;2.63;;;;;;;49.27;5.06;99495.31;5092615;28;20032;-54
2021/05/17 08:02:35;;;;;;;4.88;2.67;;;;;;;47.97;6.28;99466.50;5108682;28;20439;-54
2021/05/17 08:05:00;;;;;;;5.50;2.97;;;;;;;47.31;6.53;99461.22;5107418;28;20050;-53
2021/05/17 08:07:26;;;;;;;4.78;2.60;;;;;;;47.10;6.92;99463.31;5096817;28;20093;-55
2021/05/17 08:09:53;;;;;;;4.28;2.53;;;;;;;46.66;6.83;99490.09;5092938;28;20043;-52
2021/05/17 08:12:19;;;;;;;6.38;3.20;;;;;;;45.13;7.51;99469.16;5101371;28;20042;-56
2021/05/17 08:14:45;;;;;;;4.75;2.70;;;;;;;43.20;9.21;99445.28;5108384;28;20520;-50
2021/05/17 08:17:10;;;;;;;5.50;2.58;;;;;;;41.44;9.91;99435.88;5108258;27;20027;-48
2021/05/17 08:19:36;;;;;;;7.60;2.90;;;;;;;40.08;11.77;99478.31;5107365;28;20027;-51
2021/05/17 08:22:03;;;;;;;4.32;2.67;;;;;;;38.04;13.22;99456.38;5094673;28;20031;-55
2021/05/17 08:24:29;;;;;;;4.18;2.60;;;;;;;36.15;14.76;99455.97;5092460;28;20480;-50
2021/05/17 08:26:55;;;;;;;7.47;2.45;;;;;;;34.71;16.03;99442.84;5089223;28;20089;-53
2021/05/17 08:29:21;;;;;;;5.43;2.70;;;;;;;33.95;17.36;99459.91;5103619;28;20046;-56
2021/05/17 08:31:49;;;;;;;6.63;2.60;;;;;;;33.14;18.58;99443.41;5105926;28;20039;-55
2021/05/17 08:34:15;;;;;;;6.30;2.80;;;;;;;32.10;19.79;99402.06;5092454;28;20024;-50
2021/05/17 08:36:40;;;;;;;6.80;2.40;;;;;;;31.81;20.08;99441.34;5090367;28;20039;-53
2021/05/17 08:39:07;;;;;;;3.38;2.40;;;;;;;31.33;20.10;99428.47;5099296;28;20035;-51
2021/05/17 08:41:34;;;;;;;7.18;2.72;;;;;;;30.90;20.99;99416.69;5096937;28;20028;-53
2021/05/17 08:44:01;;;;;;;7.03;2.47;;;;;;;30.88;21.44;99421.66;5092764;28;20059;-53
2021/05/17 08:46:27;;;;;;;5.63;3.00;;;;;;;30.66;21.71;99425.41;5106333;28;20066;-55
2021/05/17 08:48:53;;;;;;;9.07;2.97;;;;;;;30.51;21.97;99412.31;5098365;28;20042;-50
2021/05/17 08:51:22;;;;;;;7.10;3.00;;;;;;;30.63;21.90;99431.47;5098850;28;20036;-55
2021/05/17 08:53:51;;;;;;;9.05;3.00;;;;;;;30.53;22.05;99442.41;5105478;28;20032;-52
2021/05/17 08:56:18;;;;;;;6.68;3.00;;;;;;;30.36;22.19;99418.53;5093721;28;20057;-50
2021/05/17 08:58:44;;;;;;;4.97;2.70;;;;;;;30.13;22.65;99387.47;5103607;28;20055;-50
2021/05/17 09:01:10;;;;;;;4.05;2.70;;;;;;;30.31;22.22;99407.47;5099906;28;20473;-52
2021/05/17 09:03:35;;;;;;;7.45;2.90;;;;;;;30.00;23.08;99385.13;5095607;28;20480;-52
2021/05/17 09:06:09;;;;;;;4.43;3.13;;;;;;;30.50;22.32;99388.53;5105890;28;20031;-49
2021/05/17 09:08:42;;;;;;;8.70;3.60;;;;;;;30.03;22.81;99388.25;5094674;28;20027;-52
2021/05/17 09:11:07;;;;;;;4.63;2.97;;;;;;;29.90;23.08;99388.63;5099048;28;20066;-55
2021/05/17 09:13:33;;;;;;;4.75;3.15;;;;;;;29.75;23.23;99384.66;5102112;28;20127;-53
2021/05/17 09:15:58;;;;;;;5.53;2.95;;;;;;;29.65;23.31;99363.31;5093267;28;20111;-50
2021/05/17 09:18:27;;;;;;;4.68;2.78;;;;;;;29.57;23.67;99382.28;5106926;28;20097;-54
2021/05/17 09:20:56;;;;;;;6.05;3.60;;;;;;;29.48;24.08;99399.28;5102210;28;20042;-56
2021/05/17 09:23:26;;;;;;;5.25;3.22;;;;;;;29.58;23.85;99373.75;5096781;28;20127;-49
2021/05/17 09:26:11;;;;;;;7.80;3.20;;;;;;;29.88;23.57;99372.34;5090144;28;20053;-49
2021/05/17 09:28:46;;;;;;;5.53;3.40;;;;;;;29.90;23.75;99355.53;5095666;28;20476;-52
2021/05/17 09:31:14;;;;;;;4.90;2.90;;;;;;;29.90;23.47;99359.13;5099296;28;20039;-53
2021/05/17 09:33:58;;;;;;;7.05;3.10;;;;;;;30.11;23.01;99366.75;5104242;28;20524;-53
2021/05/17 09:36:28;;;;;;;7.55;2.90;;;;;;;30.14;23.29;99358.75;5102481;28;20042;-51
2021/05/17 09:39:05;;;;;;;6.22;3.50;;;;;;;30.20;23.27;99356.88;5098000;28;20122;-50
2021/05/17 09:41:42;;;;;;;9.48;3.33;;;;;;;30.25;23.10;99347.78;5096705;28;20050;-49
2021/05/17 09:44:13;;;;;;;11.35;3.80;;;;;;;30.36;22.99;99355.03;5106215;28;20039;-53
2021/05/17 09:47:05;;;;;;;5.88;2.90;;;;;;;30.48;22.82;99344.63;5095732;28;20034;-53
2021/05/17 09:49:46;;;;;;;4.45;3.13;;;;;;;30.44;23.06;99337.13;5096576;28;20169;-50
2021/05/17 09:52:21;;;;;;;4.40;3.03;;;;;;;30.42;23.21;99334.66;5106358;28;20024;-53
2021/05/17 09:54:58;;;;;;;6.50;3.10;;;;;;;30.51;22.80;99330.28;5096445;28;20070;-50
2021/05/17 09:57:25;;;;;;;9.00;3.63;;;;;;;30.55;22.93;99346.31;5087588;28;20470;-53
2021/05/17 09:59:52;;;;;;;5.55;3.60;;;;;;;30.49;22.79;99321.41;5089632;28;20040;-53
2021/05/17 10:02:32;;;;;;;5.68;3.30;;;;;;;30.59;22.80;99317.03;5090755;28;20036;-52
2021/05/17 10:05:09;;;;;;;4.90;2.85;;;;;;;30.29;23.36;99315.78;5090385;28;20085;-63
2021/05/17 10:07:35;;;;;;;4.60;3.10;;;;;;;30.16;23.47;99306.91;5090102;28;20040;-54
2021/05/17 10:10:01;;;;;;;6.85;2.95;;;;;;;30.23;23.32;99309.41;5090446;28;20497;-51
2021/05/17 10:12:27;;;;;;;6.57;3.20;;;;;;;30.17;23.49;99303.03;5090146;28;20035;-52
2021/05/17 10:14:53;;;;;;;7.70;3.25;;;;;;;30.17;23.53;99302.19;5089555;28;20024;-53
2021/05/17 10:17:20;;;;;;;5.95;3.08;;;;;;;30.24;23.23;99301.97;5089600;28;20039;-49
2021/05/17 10:19:45;;;;;;;7.53;3.10;;;;;;;30.04;23.50;99282.25;5089364;28;20059;-48
2021/05/17 10:22:11;;;;;;;7.05;2.65;;;;;;;30.29;23.40;99316.63;5090164;28;20036;-49
2021/05/17 10:24:37;;;;;;;5.35;2.95;;;;;;;30.22;23.42;99316.03;5089678;28;20024;-51
2021/05/17 10:27:04;;;;;;;8.52;3.00;;;;;;;30.24;23.57;99329.56;5088986;28;20042;-55
2021/05/17 10:29:34;;;;;;;8.80;2.85;;;;;;;30.28;23.40;99336.22;5089362;28;20343;-53
2021/05/17 10:32:00;;;;;;;5.47;3.22;;;;;;;30.30;23.57;99326.56;5089556;28;20404;-55
2021/05/17 10:34:27;;;;;;;6.43;3.15;;;;;;;30.18;23.40;99321.25;5088455;28;20067;-52
2021/05/17 10:37:01;;;;;;;6.47;3.20;;;;;;;30.20;23.45;99315.47;5090991;28;20043;-52
2021/05/17 10:39:43;;;;;;;9.10;3.78;;;;;;;30.28;23.37;99322.41;5101964;28;20086;-55
2021/05/17 10:48:19;;;;;;;4.97;3.10;;;;;;;30.67;23.23;99308.28;5102701;28;20028;-55
2021/05/17 10:51:06;;;;;;;5.80;3.22;;;;;;;30.62;23.15;99303.56;5106366;28;20027;-60
2021/05/17 10:53:47;;;;;;;14.50;3.45;;;;;;;30.78;22.54;99309.97;5091134;28;20064;-50
2021/05/17 10:56:18;;;;;;;6.60;3.03;;;;;;;30.44;22.79;99246.84;5092309;28;20039;-53
2021/05/17 11:01:51;;;;;;;12.07;3.70;;;;;;;30.66;22.91;99281.75;5102861;28;20028;-50
2021/05/17 11:04:31;;;;;;;5.72;3.53;;;;;;;30.69;23.03;99281.22;5097855;28;20032;-52
2021/05/17 11:07:09;;;;;;;10.05;3.95;;;;;;;30.72;22.86;99277.06;5101340;28;20027;-54
2021/05/17 11:09:42;;;;;;;5.85;3.55;;;;;;;30.70;22.84;99260.75;5092346;28;20044;-56
2021/05/17 11:12:37;;;;;;;12.52;3.85;;;;;;;30.80;22.65;99254.44;5091816;28;20162;-50
2021/05/17 11:15:10;;;;;;;14.07;3.60;;;;;;;30.73;22.87;99234.50;5091815;28;20123;-55
2021/05/17 11:18:06;;;;;;;9.57;3.60;;;;;;;30.90;22.64;99248.09;5102425;28;20081;-48
2021/05/17 11:20:41;;;;;;;8.02;3.70;;;;;;;30.86;22.79;99241.44;5091700;28;20035;-53
2021/05/17 11:23:12;;;;;;;12.82;3.60;;;;;;;30.85;22.84;99234.25;5091856;28;20040;-54
2021/05/17 11:28:39;;;;;;;9.20;3.50;;;;;;;30.89;22.26;99229.88;5091463;28;20028;-52
2021/05/17 11:31:25;;;;;;;11.18;3.92;;;;;;;30.94;21.96;99238.97;5097361;28;20044;-50
2021/05/17 11:33:59;;;;;;;7.65;3.67;;;;;;;30.84;22.12;99236.22;5088603;28;20062;-52
2021/05/17 11:36:27;;;;;;;10.35;4.70;;;;;;;30.74;22.22;99216.81;5089301;28;20546;-53
2021/05/17 11:39:13;;;;;;;8.85;4.15;;;;;;;30.82;22.53;99207.16;5092038;28;20080;-50
2021/05/17 11:41:55;;;;;;;;;;;;;;;30.94;22.32;99211.34;5092334;28;20093;-52
2021/05/17 11:44:30;;;;;;;10.10;4.45;;;;;;;30.94;22.35;99225.16;5091603;28;19920;-51
2021/05/17 11:47:09;;;;;;;9.10;3.80;;;;;;;30.97;22.40;99198.91;5091867;28;20126;-48
2021/05/17 11:49:38;;;;;;;9.50;3.70;;;;;;;30.88;22.59;99203.34;5091598;28;20054;-50
2021/05/17 11:52:09;;;;;;;11.45;3.95;;;;;;;30.89;22.24;99197.50;5086130;28;20459;-57
2021/05/17 11:54:40;;;;;;;8.45;3.70;;;;;;;30.81;22.28;99192.53;5095630;28;20081;-54
2021/05/17 11:57:07;;;;;;;10.15;4.10;;;;;;;30.60;22.45;99139.13;5093913;28;20424;-51
2021/05/17 11:59:34;;;;;;;10.18;4.20;;;;;;;30.88;22.83;99186.75;5100252;28;20099;-54
2021/05/17 12:02:11;;;;;;;12.73;4.35;;;;;;;30.88;22.62;99178.47;5100358;28;20028;-51
2021/05/17 12:04:41;;;;;;;12.60;4.28;;;;;;;30.92;22.35;99190.63;5098286;28;20077;-52
2021/05/17 12:07:17;;;;;;;9.10;3.90;;;;;;;30.87;22.17;99182.34;5098304;28;20042;-53
2021/05/17 12:09:47;;;;;;;10.75;4.10;;;;;;;30.79;22.04;99187.28;5102127;28;20062;-54
2021/05/17 12:12:19;;;;;;;14.48;5.38;;;;;;;30.87;21.70;99160.22;5099723;27;20515;-55
2021/05/17 12:14:47;;;;;;;12.40;4.30;;;;;;;31.01;21.16;99166.84;5097138;28;20489;-59